Time;durP1;ratioP1;P1;durP2;ratioP2;P2;SDS_P1;SDS_P2;PMS_P1;PMS_P2;Temp;Humidity;BMP_temperature;BMP_pressure;BME280_temperature;BME280_humidity;BME280_pressure;Samples;Min_cycle;Max_cycle;Signal;HPM_P1;HPM_P2
2022/07/15 00:00:32;;;;;;;6.07;1.88;;;14.00;99.90;;;;;;4981928;28;20052;-67
2022/07/15 00:02:59;;;;;;;8.38;1.98;;;14.00;99.90;;;;;;4996854;28;20096;-68
2022/07/15 00:05:25;;;;;;;11.15;1.83;;;14.00;99.90;;;;;;4997936;28;20526;-68
2022/07/15 00:07:52;;;;;;;9.70;2.65;;;14.00;99.90;;;;;;4994042;28;20049;-66
2022/07/15 00:10:23;;;;;;;8.88;2.10;;;14.00;99.90;;;;;;4993571;28;20038;-67
2022/07/15 00:12:55;;;;;;;8.02;1.92;;;14.00;99.90;;;;;;4979652;28;20532;-67
2022/07/15 00:15:24;;;;;;;6.60;2.00;;;14.00;99.90;;;;;;4996319;28;20042;-67
2022/07/15 00:17:51;;;;;;;13.27;2.47;;;14.00;99.90;;;;;;5013588;28;20054;-68
2022/07/15 00:20:18;;;;;;;5.82;1.67;;;14.00;99.90;;;;;;4995462;28;20045;-68
2022/07/15 00:22:45;;;;;;;6.88;1.58;;;14.00;99.90;;;;;;4995540;28;20164;-68
2022/07/15 00:25:12;;;;;;;10.45;1.88;;;14.10;99.90;;;;;;5006908;28;20390;-67
2022/07/15 00:28:02;;;;;;;11.15;1.80;;;14.00;99.90;;;;;;4996350;28;20041;-67
2022/07/15 00:30:30;;;;;;;8.75;2.10;;;14.10;99.90;;;;;;4995557;28;20895;-68
2022/07/15 00:32:56;;;;;;;11.35;2.30;;;14.10;99.90;;;;;;4994431;28;20041;-68
2022/07/15 00:35:22;;;;;;;10.23;2.13;;;14.10;99.90;;;;;;5012905;28;20050;-67
2022/07/15 00:37:49;;;;;;;6.50;1.70;;;14.10;99.90;;;;;;4997194;28;20077;-68
2022/07/15 00:40:15;;;;;;;6.97;2.20;;;14.10;99.90;;;;;;4993286;28;20053;-67
2022/07/15 00:42:43;;;;;;;9.50;1.83;;;14.10;99.90;;;;;;4995394;28;20060;-67
2022/07/15 00:45:15;;;;;;;5.85;1.88;;;14.10;99.90;;;;;;4995601;28;20042;-67
2022/07/15 00:47:42;;;;;;;6.78;1.80;;;14.10;99.90;;;;;;4971778;28;20439;-68
2022/07/15 00:50:09;;;;;;;6.28;1.90;;;14.10;99.90;;;;;;4977959;28;20403;-68
2022/07/15 00:52:43;;;;;;;9.88;1.90;;;14.10;99.90;;;;;;4995637;28;20045;-68
2022/07/15 00:55:11;;;;;;;8.00;1.65;;;14.10;99.90;;;;;;4994068;28;20184;-67
2022/07/15 00:57:43;;;;;;;7.55;1.73;;;14.00;99.90;;;;;;4986896;28;20053;-68
2022/07/15 01:00:11;;;;;;;10.45;1.85;;;14.00;99.90;;;;;;4978027;28;20080;-67
2022/07/15 01:02:37;;;;;;;6.47;1.50;;;14.00;99.90;;;;;;4979148;28;20077;-67
2022/07/15 01:05:05;;;;;;;7.68;1.75;;;14.00;99.90;;;;;;4995391;28;20121;-68
2022/07/15 01:07:32;;;;;;;5.78;1.50;;;13.90;99.90;;;;;;4975947;28;20046;-68
2022/07/15 01:09:58;;;;;;;9.13;1.58;;;13.90;99.90;;;;;;4961052;28;20046;-67
2022/07/15 01:12:26;;;;;;;6.60;1.77;;;13.90;99.90;;;;;;5011388;28;20042;-68
2022/07/15 01:14:52;;;;;;;6.53;1.60;;;13.90;99.90;;;;;;4993081;28;20077;-67
2022/07/15 01:17:18;;;;;;;6.47;1.42;;;13.90;99.90;;;;;;4995338;28;20045;-68
2022/07/15 01:19:44;;;;;;;7.22;1.55;;;13.90;99.90;;;;;;4994694;28;20106;-67
2022/07/15 01:22:10;;;;;;;11.23;1.77;;;13.80;99.90;;;;;;4995600;28;20041;-67
2022/07/15 01:24:36;;;;;;;8.65;1.63;;;13.80;99.90;;;;;;4977571;28;20562;-67
2022/07/15 01:27:02;;;;;;;6.70;1.40;;;13.80;99.90;;;;;;4997238;28;20046;-68
2022/07/15 01:29:28;;;;;;;6.55;1.40;;;13.80;99.90;;;;;;4988253;28;20583;-68
2022/07/15 01:31:54;;;;;;;6.93;1.27;;;13.80;99.90;;;;;;4995369;28;20045;-67
2022/07/15 01:34:20;;;;;;;7.10;1.50;;;13.80;99.90;;;;;;4995719;28;20037;-67
2022/07/15 01:36:46;;;;;;;6.97;1.50;;;13.80;99.90;;;;;;4999936;28;20038;-66
2022/07/15 01:39:12;;;;;;;3.50;1.17;;;13.80;99.90;;;;;;4994763;28;20175;-67
2022/07/15 01:41:38;;;;;;;4.78;1.30;;;13.70;99.90;;;;;;4992574;28;20085;-67
2022/07/15 01:44:04;;;;;;;9.60;1.77;;;13.60;99.90;;;;;;4956242;28;20546;-67
2022/07/15 01:46:30;;;;;;;6.28;1.10;;;13.60;99.90;;;;;;5007777;28;20046;-67
2022/07/15 01:51:41;;;;;;;5.05;1.02;;;13.50;99.90;;;;;;4994653;28;20053;-67
2022/07/15 01:54:06;;;;;;;2.55;1.15;;;13.50;99.90;;;;;;4991760;28;20050;-67
2022/07/15 01:56:32;;;;;;;4.20;1.20;;;13.50;99.90;;;;;;4972233;28;20042;-67
2022/07/15 01:58:58;;;;;;;4.57;1.10;;;13.40;99.90;;;;;;4978376;28;20452;-67
2022/07/15 02:01:24;;;;;;;4.88;1.00;;;13.40;99.90;;;;;;5010088;28;20049;-67
2022/07/15 02:03:50;;;;;;;4.45;0.70;;;13.40;99.90;;;;;;4976955;28;20085;-67
2022/07/15 02:06:16;;;;;;;4.07;1.15;;;13.40;99.90;;;;;;4956864;28;20534;-67
2022/07/15 02:08:42;;;;;;;9.38;1.20;;;13.40;99.90;;;;;;4993430;28;20049;-67
2022/07/15 02:11:08;;;;;;;3.55;0.93;;;13.30;99.90;;;;;;5008375;28;20058;-67
2022/07/15 02:13:34;;;;;;;4.28;0.90;;;13.30;99.90;;;;;;4991548;28;20046;-67
2022/07/15 02:15:59;;;;;;;4.40;0.70;;;13.20;99.90;;;;;;4990853;28;20460;-67
2022/07/15 02:18:25;;;;;;;2.15;0.75;;;13.20;99.90;;;;;;5010387;28;20042;-67
2022/07/15 02:20:51;;;;;;;5.18;1.10;;;13.20;99.90;;;;;;4978565;28;20045;-67
2022/07/15 02:23:17;;;;;;;6.82;1.35;;;13.20;99.90;;;;;;4961141;28;20065;-67
2022/07/15 02:25:43;;;;;;;7.30;1.05;;;13.10;99.90;;;;;;4994052;28;20128;-67
2022/07/15 02:28:09;;;;;;;4.80;0.80;;;13.10;99.90;;;;;;4992769;28;20085;-67
2022/07/15 02:30:38;;;;;;;3.75;0.90;;;13.00;99.90;;;;;;4989816;28;20050;-67
2022/07/15 02:33:04;;;;;;;6.45;1.02;;;13.00;99.90;;;;;;4993513;28;20464;-67
2022/07/15 02:35:30;;;;;;;2.95;1.10;;;12.90;99.90;;;;;;4993667;28;20494;-67
2022/07/15 02:37:57;;;;;;;5.00;0.95;;;12.80;99.90;;;;;;4940703;28;20042;-67
2022/07/15 02:40:23;;;;;;;3.55;0.93;;;12.80;99.90;;;;;;4955985;28;20073;-67
2022/07/15 02:42:56;;;;;;;4.65;0.90;;;12.70;99.90;;;;;;4977529;28;20492;-68
2022/07/15 02:45:24;;;;;;;3.30;1.00;;;12.70;99.90;;;;;;4995103;28;20128;-67
2022/07/15 02:47:50;;;;;;;3.47;1.02;;;12.70;99.90;;;;;;4975482;28;20061;-67
2022/07/15 02:50:17;;;;;;;3.08;1.00;;;12.60;99.90;;;;;;4975816;28;20193;-68
2022/07/15 02:52:43;;;;;;;2.83;1.00;;;12.60;99.90;;;;;;4977680;28;20518;-68
2022/07/15 02:55:10;;;;;;;3.47;1.20;;;12.50;99.90;;;;;;4997876;28;20125;-67
2022/07/15 02:57:37;;;;;;;3.67;1.20;;;12.50;99.90;;;;;;4978841;28;20049;-67
2022/07/15 03:00:09;;;;;;;3.78;1.20;;;12.50;99.90;;;;;;4998569;28;20045;-67
2022/07/15 03:02:35;;;;;;;4.20;1.50;;;12.40;99.90;;;;;;5011556;28;20124;-67
2022/07/15 03:05:01;;;;;;;4.00;1.13;;;12.40;99.90;;;;;;4996802;28;20057;-67
2022/07/15 03:07:30;;;;;;;4.97;1.40;;;12.40;99.90;;;;;;4959561;28;20123;-66
2022/07/15 03:09:56;;;;;;;6.90;1.63;;;12.30;99.90;;;;;;4961057;28;20089;-67
2022/07/15 03:12:23;;;;;;;5.10;1.50;;;12.30;99.90;;;;;;4986124;28;20050;-67
2022/07/15 03:14:48;;;;;;;4.05;1.45;;;12.20;99.90;;;;;;4993644;28;20041;-66
2022/07/15 03:17:14;;;;;;;3.53;1.17;;;12.20;99.90;;;;;;4973380;28;20072;-67
2022/07/15 03:19:40;;;;;;;5.72;1.40;;;12.10;99.90;;;;;;4998356;28;20460;-66
2022/07/15 03:22:06;;;;;;;6.20;1.50;;;12.10;99.90;;;;;;4998054;28;20046;-66
2022/07/15 03:24:33;;;;;;;4.07;1.50;;;12.10;99.90;;;;;;4981586;28;20062;-66
2022/07/15 03:26:59;;;;;;;4.40;1.70;;;12.20;99.90;;;;;;4983884;28;20179;-67
2022/07/15 03:29:26;;;;;;;5.22;1.42;;;12.10;99.90;;;;;;4996152;28;20041;-67
2022/07/15 03:31:53;;;;;;;5.75;1.45;;;12.10;99.90;;;;;;5013064;28;20539;-66
2022/07/15 03:34:19;;;;;;;4.60;1.27;;;12.10;99.90;;;;;;4992745;28;20046;-67
2022/07/15 03:36:44;;;;;;;5.78;1.65;;;12.10;99.90;;;;;;4962581;28;20042;-67
2022/07/15 03:39:10;;;;;;;5.93;1.50;;;12.10;99.90;;;;;;4997720;28;20184;-67
2022/07/15 03:41:36;;;;;;;5.88;1.60;;;12.20;99.90;;;;;;4996974;28;20296;-67
2022/07/15 03:44:03;;;;;;;5.28;1.20;;;12.20;99.90;;;;;;4956985;28;20129;-66
2022/07/15 03:46:29;;;;;;;5.40;1.20;;;12.20;99.90;;;;;;4995135;28;20065;-67
2022/07/15 03:48:56;;;;;;;6.28;1.50;;;12.20;99.90;;;;;;4978680;28;20049;-67
2022/07/15 03:51:24;;;;;;;5.70;1.42;;;12.20;99.90;;;;;;4995697;28;20057;-67
2022/07/15 03:53:50;;;;;;;4.13;1.30;;;12.20;99.90;;;;;;4996387;28;20404;-67
2022/07/15 03:56:16;;;;;;;4.28;1.45;;;12.30;99.90;;;;;;4978928;28;20046;-67
2022/07/15 03:58:44;;;;;;;5.85;1.23;;;12.30;99.90;;;;;;4995592;28;20049;-67
2022/07/15 04:01:10;;;;;;;3.15;1.10;;;12.30;99.90;;;;;;4995283;28;20048;-66
2022/07/15 04:03:36;;;;;;;5.47;1.23;;;12.40;99.90;;;;;;4977712;28;20583;-67
2022/07/15 04:06:02;;;;;;;2.83;1.00;;;12.40;99.90;;;;;;4973666;28;20052;-68
2022/07/15 04:08:28;;;;;;;4.10;1.02;;;12.50;99.90;;;;;;4992891;28;20057;-67
2022/07/15 04:10:56;;;;;;;4.63;1.40;;;12.50;99.90;;;;;;4972924;28;20503;-66
2022/07/15 04:13:22;;;;;;;2.70;1.17;;;12.50;99.90;;;;;;4978872;28;20049;-67
2022/07/15 04:15:48;;;;;;;7.03;1.20;;;12.60;99.90;;;;;;4992015;28;20131;-66
2022/07/15 04:18:14;;;;;;;3.95;1.30;;;12.60;99.90;;;;;;4993336;28;20141;-68
2022/07/15 04:20:40;;;;;;;7.88;1.40;;;12.60;99.90;;;;;;4992437;28;20099;-66
2022/07/15 04:23:06;;;;;;;1.83;1.00;;;12.70;99.90;;;;;;4977870;28;20045;-65
2022/07/15 04:25:32;;;;;;;5.25;1.40;;;12.70;99.90;;;;;;5011539;28;20092;-66
2022/07/15 04:27:58;;;;;;;7.75;1.42;;;12.70;99.90;;;;;;4993914;28;20086;-66
2022/07/15 04:30:23;;;;;;;7.88;1.17;;;12.80;99.90;;;;;;4977339;28;20041;-66
2022/07/15 04:32:50;;;;;;;4.22;1.30;;;12.80;99.90;;;;;;4994263;28;20053;-67
2022/07/15 04:35:16;;;;;;;4.82;1.08;;;12.90;99.90;;;;;;4972413;28;20103;-66
2022/07/15 04:37:43;;;;;;;4.72;1.27;;;12.90;99.90;;;;;;4995442;28;20327;-67
2022/07/15 04:40:12;;;;;;;3.70;1.33;;;13.00;99.90;;;;;;4976123;28;20089;-66
2022/07/15 04:42:38;;;;;;;6.38;0.98;;;13.00;99.90;;;;;;4979840;28;20049;-67
2022/07/15 04:45:04;;;;;;;6.10;1.10;;;13.10;99.90;;;;;;4978144;28;20085;-67
2022/07/15 04:47:30;;;;;;;5.47;1.10;;;13.10;99.90;;;;;;5005497;28;20049;-67
2022/07/15 04:52:47;;;;;;;5.50;1.30;;;13.20;99.90;;;;;;4993668;28;20574;-67
2022/07/15 04:55:14;;;;;;;3.88;1.00;;;13.30;99.90;;;;;;4994959;28;20586;-67
2022/07/15 04:57:41;;;;;;;4.60;1.10;;;13.30;99.90;;;;;;5006849;28;20083;-68
2022/07/15 05:00:08;;;;;;;4.85;1.13;;;13.30;99.90;;;;;;4992999;28;22800;-67
2022/07/15 05:02:35;;;;;;;5.10;1.30;;;13.40;99.90;;;;;;4976270;28;20092;-67
2022/07/15 05:05:01;;;;;;;4.22;1.00;;;13.40;99.90;;;;;;4973224;28;20496;-68
2022/07/15 05:07:26;;;;;;;3.13;0.98;;;13.50;99.90;;;;;;5007466;28;20120;-68
2022/07/15 05:09:52;;;;;;;5.13;1.23;;;13.50;99.90;;;;;;4976148;28;20077;-67
2022/07/15 05:12:18;;;;;;;4.10;0.88;;;13.50;99.90;;;;;;4993483;28;20088;-68
2022/07/15 05:14:44;;;;;;;4.25;1.10;;;13.60;99.90;;;;;;4978976;28;20042;-67
2022/07/15 05:17:10;;;;;;;6.95;1.10;;;13.60;99.90;;;;;;4969978;28;20041;-67
2022/07/15 05:19:36;;;;;;;5.15;1.00;;;13.70;99.90;;;;;;4974104;28;20124;-67
2022/07/15 05:22:02;;;;;;;3.78;1.42;;;13.70;99.90;;;;;;4974086;28;20340;-66
2022/07/15 05:24:29;;;;;;;7.18;1.20;;;13.70;99.90;;;;;;5007214;28;20050;-67
2022/07/15 05:26:55;;;;;;;4.30;1.08;;;13.80;99.90;;;;;;4981204;28;20056;-67
2022/07/15 05:29:24;;;;;;;4.13;1.23;;;13.80;99.90;;;;;;4987572;28;20140;-67
2022/07/15 05:31:50;;;;;;;4.05;1.10;;;13.90;99.90;;;;;;4992130;28;20412;-67
2022/07/15 05:34:16;;;;;;;6.85;1.10;;;14.00;99.90;;;;;;4994962;28;20046;-68
2022/07/15 05:36:43;;;;;;;2.20;0.85;;;14.10;99.90;;;;;;4999526;28;21022;-67
2022/07/15 05:39:08;;;;;;;5.68;1.00;;;14.20;99.90;;;;;;4981379;28;20048;-68
2022/07/15 05:41:34;;;;;;;6.75;1.05;;;14.30;99.90;;;;;;4988925;28;20053;-67
2022/07/15 05:44:00;;;;;;;3.80;1.30;;;14.40;99.90;;;;;;4984394;28;20053;-67
2022/07/15 05:46:26;;;;;;;3.72;0.90;;;14.40;99.90;;;;;;5007173;28;20081;-67
2022/07/15 05:48:52;;;;;;;5.63;1.05;;;14.50;99.90;;;;;;4974690;28;20436;-68
2022/07/15 05:51:18;;;;;;;4.65;1.27;;;14.50;99.90;;;;;;4984694;28;20073;-68
2022/07/15 05:53:44;;;;;;;2.92;0.95;;;14.60;99.90;;;;;;4989847;28;20404;-67
2022/07/15 05:56:10;;;;;;;3.05;0.88;;;14.60;99.90;;;;;;4991192;28;20049;-68
2022/07/15 05:58:39;;;;;;;8.18;1.15;;;14.70;99.90;;;;;;4972159;28;20491;-67
2022/07/15 06:01:05;;;;;;;4.35;0.98;;;14.70;99.90;;;;;;4981244;28;20046;-67
2022/07/15 06:03:31;;;;;;;6.22;1.23;;;14.70;99.90;;;;;;4975702;28;20623;-67
2022/07/15 06:05:57;;;;;;;4.53;1.02;;;14.70;99.90;;;;;;4970424;28;20119;-66
2022/07/15 06:08:23;;;;;;;3.42;0.98;;;14.70;99.90;;;;;;4964927;28;20146;-66
2022/07/15 06:10:49;;;;;;;3.13;1.35;;;14.70;99.90;;;;;;4973757;28;20388;-67
2022/07/15 06:13:15;;;;;;;4.65;1.17;;;14.70;99.90;;;;;;4993660;28;20111;-67
2022/07/15 06:15:41;;;;;;;2.75;0.90;;;14.70;99.90;;;;;;5000992;28;20050;-68
2022/07/15 06:18:07;;;;;;;3.25;1.00;;;14.70;99.90;;;;;;5001863;28;20050;-68
2022/07/15 06:20:33;;;;;;;3.35;0.90;;;14.80;99.90;;;;;;4986061;28;20103;-68
2022/07/15 06:22:59;;;;;;;1.98;1.20;;;14.80;99.90;;;;;;4996938;28;20400;-68
2022/07/15 06:25:25;;;;;;;4.60;0.90;;;14.80;99.90;;;;;;4997258;28;20078;-68
2022/07/15 06:27:51;;;;;;;4.80;1.00;;;14.90;99.90;;;;;;4983625;28;20045;-68
2022/07/15 06:30:17;;;;;;;3.00;0.88;;;14.90;99.90;;;;;;5001798;28;20049;-68
2022/07/15 06:32:43;;;;;;;3.97;0.93;;;15.00;99.90;;;;;;4983394;28;20575;-68
2022/07/15 06:35:09;;;;;;;4.10;0.80;;;15.00;99.90;;;;;;4993937;28;20935;-68
2022/07/15 06:37:34;;;;;;;3.30;0.77;;;15.10;99.90;;;;;;4993219;28;20046;-68
2022/07/15 06:40:01;;;;;;;4.47;0.88;;;15.10;99.90;;;;;;4973762;28;20054;-68
2022/07/15 06:42:27;;;;;;;6.47;1.67;;;15.10;99.90;;;;;;4995314;28;20453;-68
2022/07/15 06:44:53;;;;;;;4.80;1.10;;;15.10;99.90;;;;;;4990603;28;20905;-68
2022/07/15 06:47:19;;;;;;;5.53;0.90;;;15.10;99.90;;;;;;4982056;28;20066;-68
2022/07/15 06:49:44;;;;;;;3.25;1.00;;;15.10;99.90;;;;;;4976581;28;20046;-68
2022/07/15 06:52:10;;;;;;;5.72;0.90;;;15.20;99.90;;;;;;4983841;28;20128;-68
2022/07/15 06:54:36;;;;;;;4.57;0.90;;;15.20;99.90;;;;;;5006811;28;20052;-68
2022/07/15 06:57:02;;;;;;;4.97;0.80;;;15.20;99.90;;;;;;4973751;28;20046;-68
2022/07/15 06:59:28;;;;;;;3.78;1.08;;;15.30;99.90;;;;;;4976310;28;20121;-68
2022/07/15 07:01:55;;;;;;;3.80;1.05;;;15.30;99.90;;;;;;4984273;28;20820;-68
2022/07/15 07:04:21;;;;;;;3.90;1.10;;;15.30;99.90;;;;;;4990716;28;20057;-68
2022/07/15 07:06:47;;;;;;;2.38;0.70;;;15.40;99.90;;;;;;4974214;28;20054;-68
2022/07/15 07:09:13;;;;;;;3.88;1.00;;;15.40;99.90;;;;;;4989736;28;20053;-69
2022/07/15 07:11:39;;;;;;;5.43;0.90;;;15.50;99.90;;;;;;4998279;28;20577;-68
2022/07/15 07:14:06;;;;;;;3.35;0.98;;;15.60;99.90;;;;;;4989180;28;20046;-68
2022/07/15 07:16:32;;;;;;;7.07;0.90;;;15.60;99.90;;;;;;4985455;28;20071;-68
2022/07/15 07:18:58;;;;;;;2.88;0.70;;;15.80;99.90;;;;;;4993058;28;20084;-68
2022/07/15 07:21:24;;;;;;;5.72;0.80;;;15.90;99.90;;;;;;4982434;28;20132;-68
2022/07/15 07:23:50;;;;;;;4.40;0.93;;;16.10;99.90;;;;;;4984064;28;20533;-68
2022/07/15 07:26:17;;;;;;;2.63;1.00;;;16.30;99.90;;;;;;4977521;28;20078;-68
2022/07/15 07:28:43;;;;;;;8.70;1.27;;;16.60;99.90;;;;;;4953217;28;20062;-68
2022/07/15 07:31:12;;;;;;;5.55;0.88;;;16.80;99.90;;;;;;4957867;28;20038;-69
2022/07/15 07:33:39;;;;;;;4.90;0.98;;;17.00;99.90;;;;;;4990390;28;20499;-68
2022/07/15 07:36:06;;;;;;;2.17;0.60;;;16.90;99.90;;;;;;4973365;28;20115;-68
2022/07/15 07:38:33;;;;;;;4.40;0.90;;;16.90;99.90;;;;;;4987688;28;20049;-68
2022/07/15 07:40:59;;;;;;;4.57;0.95;;;16.80;99.90;;;;;;4977902;28;20057;-68
2022/07/15 07:43:25;;;;;;;4.88;0.80;;;16.80;99.90;;;;;;4990081;28;20092;-68
2022/07/15 07:45:54;;;;;;;1.85;0.63;;;16.80;99.90;;;;;;4978794;28;20124;-68
2022/07/15 07:48:20;;;;;;;5.63;1.05;;;16.90;99.90;;;;;;4987856;28;20049;-68
2022/07/15 07:50:46;;;;;;;6.50;0.80;;;16.90;99.90;;;;;;4960064;28;20077;-68
2022/07/15 07:53:13;;;;;;;2.28;0.68;;;16.90;99.90;;;;;;4991521;28;20300;-69
2022/07/15 07:55:39;;;;;;;4.10;0.80;;;17.00;99.90;;;;;;4967102;28;20058;-68
2022/07/15 07:58:05;;;;;;;3.15;0.50;;;17.20;99.90;;;;;;5006273;28;20350;-68
2022/07/15 08:00:31;;;;;;;3.05;0.50;;;17.30;99.90;;;;;;5011122;28;20077;-68
2022/07/15 08:02:59;;;;;;;1.15;0.60;;;17.40;99.90;;;;;;4987061;28;20404;-68
2022/07/15 08:05:26;;;;;;;2.03;0.70;;;17.50;99.90;;;;;;4989242;28;20092;-68
2022/07/15 08:08:10;;;;;;;1.13;0.70;;;17.50;99.90;;;;;;4988858;28;20133;-69
2022/07/15 08:10:36;;;;;;;2.50;0.52;;;17.60;99.90;;;;;;4990927;28;20096;-69
2022/07/15 08:13:02;;;;;;;2.05;0.55;;;17.70;99.90;;;;;;4991523;28;20149;-68
2022/07/15 08:15:28;;;;;;;2.72;0.57;;;17.70;99.90;;;;;;4977669;28;20069;-68
2022/07/15 08:17:54;;;;;;;4.75;0.60;;;17.70;99.90;;;;;;5005636;28;20609;-68
2022/07/15 08:20:20;;;;;;;1.67;0.50;;;17.50;99.90;;;;;;4992135;28;20440;-69
2022/07/15 08:22:46;;;;;;;4.20;0.82;;;17.40;99.90;;;;;;4974443;28;20053;-68
2022/07/15 08:25:11;;;;;;;2.20;0.57;;;17.40;99.90;;;;;;4973985;28;21178;-69
2022/07/15 08:27:37;;;;;;;2.78;0.50;;;17.30;99.90;;;;;;4974053;28;20484;-68
2022/07/15 08:30:04;;;;;;;2.50;0.60;;;17.30;99.90;;;;;;4991097;28;20045;-69
2022/07/15 08:32:30;;;;;;;1.77;0.40;;;17.30;99.90;;;;;;4992257;28;20053;-67
2022/07/15 08:34:55;;;;;;;0.63;0.50;;;17.30;99.90;;;;;;4975472;28;20048;-67
2022/07/15 08:37:24;;;;;;;2.15;0.60;;;17.40;99.90;;;;;;4973258;28;20077;-68
2022/07/15 08:39:50;;;;;;;3.10;0.95;;;17.60;99.90;;;;;;4991543;28;20049;-67
2022/07/15 08:42:18;;;;;;;1.13;0.60;;;17.70;99.90;;;;;;4973879;28;20148;-68
2022/07/15 08:44:44;;;;;;;3.33;0.65;;;17.80;99.90;;;;;;4991519;28;20084;-67
2022/07/15 08:47:10;;;;;;;1.20;0.50;;;17.90;99.90;;;;;;4994559;28;20117;-67
2022/07/15 08:49:39;;;;;;;3.10;0.60;;;17.90;99.90;;;;;;4988673;28;20524;-66
2022/07/15 08:52:06;;;;;;;4.78;0.50;;;17.90;99.90;;;;;;4966773;28;20527;-67
2022/07/15 08:54:32;;;;;;;1.35;0.47;;;17.80;99.90;;;;;;4976955;28;20497;-67
2022/07/15 08:56:58;;;;;;;0.93;0.50;;;17.80;99.90;;;;;;4975044;28;20472;-67
2022/07/15 08:59:25;;;;;;;3.25;0.60;;;17.80;99.50;;;;;;4992029;28;20053;-67
2022/07/15 09:01:51;;;;;;;6.47;0.55;;;17.90;99.10;;;;;;4989033;28;20140;-67
2022/07/15 09:04:17;;;;;;;1.65;0.60;;;18.10;98.70;;;;;;4991133;28;20481;-69
2022/07/15 09:06:46;;;;;;;3.20;0.70;;;18.40;98.30;;;;;;4956897;28;20633;-67
2022/07/15 09:09:18;;;;;;;1.75;0.70;;;18.70;97.80;;;;;;4975491;28;20440;-67
2022/07/15 09:11:52;;;;;;;1.20;0.40;;;18.80;97.20;;;;;;4975132;28;20049;-68
2022/07/15 09:14:19;;;;;;;2.50;0.60;;;18.80;96.70;;;;;;4990824;28;20045;-68
2022/07/15 09:16:46;;;;;;;1.83;0.70;;;18.70;96.70;;;;;;4974178;28;20173;-68
2022/07/15 09:19:12;;;;;;;5.78;0.85;;;18.70;96.30;;;;;;4991233;28;20104;-68
2022/07/15 09:21:42;;;;;;;5.65;0.98;;;18.60;96.00;;;;;;4991210;28;20113;-67
2022/07/15 09:24:18;;;;;;;3.03;0.60;;;18.60;95.90;;;;;;4957786;28;20139;-67
2022/07/15 09:26:44;;;;;;;1.52;0.52;;;18.60;95.60;;;;;;4991498;28;20081;-67
2022/07/15 09:36:01;;;;;;;5.22;0.60;;;18.60;95.90;;;;;;4987239;28;20476;-68
2022/07/15 09:37:56;;;;;;;1.88;0.50;;;18.60;95.60;;;;;;4992440;28;20049;-67
2022/07/15 09:40:22;;;;;;;7.07;0.60;;;18.70;95.40;;;;;;4971931;28;21890;-67
2022/07/15 09:43:06;;;;;;;1.35;0.40;;;18.70;95.10;;;;;;4990576;28;20084;-68
2022/07/15 09:45:36;;;;;;;2.17;0.43;;;18.80;95.20;;;;;;5008472;28;23326;-67
2022/07/15 09:48:06;;;;;;;1.48;0.50;;;19.00;95.10;;;;;;4993120;28;20472;-68
2022/07/15 09:50:36;;;;;;;1.58;0.40;;;19.20;94.70;;;;;;4988584;28;20052;-67
2022/07/15 09:53:11;;;;;;;4.38;0.70;;;19.20;94.10;;;;;;4985020;28;20077;-68
2022/07/15 09:55:37;;;;;;;1.52;0.57;;;19.20;93.50;;;;;;4991654;28;20045;-68
2022/07/15 09:58:05;;;;;;;2.53;0.75;;;19.30;93.40;;;;;;4993596;28;20046;-68
2022/07/15 10:00:31;;;;;;;0.90;0.47;;;19.30;93.40;;;;;;4971970;28;20089;-67
2022/07/15 10:02:58;;;;;;;2.67;0.50;;;19.40;93.30;;;;;;4991204;28;20053;-68
2022/07/15 10:05:24;;;;;;;2.63;0.73;;;19.40;93.00;;;;;;4992593;28;20471;-68
2022/07/15 10:07:52;;;;;;;2.30;0.60;;;19.50;92.80;;;;;;4990625;28;20050;-67
2022/07/15 10:10:19;;;;;;;1.40;0.50;;;19.50;92.80;;;;;;4966514;28;20056;-68
2022/07/15 10:13:03;;;;;;;2.80;0.80;;;19.50;92.40;;;;;;4990969;28;20077;-67
2022/07/15 10:16:05;;;;;;;4.13;0.68;;;19.50;92.50;;;;;;4992589;28;20077;-68
2022/07/15 10:18:48;;;;;;;2.60;0.65;;;19.60;92.70;;;;;;4985371;28;20610;-68
2022/07/15 10:21:21;;;;;;;;;;;19.90;92.60;;;;;;4995116;28;20133;-68
2022/07/15 10:23:59;;;;;;;0.88;0.50;;;20.00;92.60;;;;;;4996708;28;19983;-68
2022/07/15 10:26:30;;;;;;;2.97;0.50;;;20.20;91.30;;;;;;4981324;28;20358;-68
2022/07/15 10:29:02;;;;;;;1.27;0.50;;;20.20;90.70;;;;;;4998841;28;20045;-68
2022/07/15 10:31:30;;;;;;;2.72;0.60;;;20.20;90.90;;;;;;4974860;28;20046;-68
2022/07/15 10:34:07;;;;;;;2.22;0.70;;;20.20;90.50;;;;;;4998315;28;20046;-68
2022/07/15 10:36:53;;;;;;;1.10;0.50;;;20.10;90.40;;;;;;4998872;28;20049;-69
2022/07/15 10:39:21;;;;;;;3.13;0.47;;;20.00;89.90;;;;;;4982655;28;20076;-68
2022/07/15 10:42:02;;;;;;;1.05;0.40;;;19.90;90.00;;;;;;4999005;28;20046;-68
2022/07/15 10:44:47;;;;;;;1.90;0.70;;;19.90;89.90;;;;;;5015751;28;20042;-69
2022/07/15 10:47:13;;;;;;;0.95;0.50;;;19.80;89.80;;;;;;5014926;28;20054;-68
2022/07/15 10:49:47;;;;;;;1.67;0.40;;;19.70;88.60;;;;;;4982288;28;20052;-68
2022/07/15 10:52:18;;;;;;;2.17;0.63;;;19.60;87.10;;;;;;4993828;28;20041;-69
2022/07/15 10:54:50;;;;;;;3.07;0.40;;;19.50;87.40;;;;;;4989634;28;20076;-68
2022/07/15 10:57:19;;;;;;;1.05;0.57;;;19.40;88.50;;;;;;5008110;28;20388;-68
2022/07/15 10:59:56;;;;;;;1.08;0.40;;;19.40;88.50;;;;;;4974727;28;20480;-70
2022/07/15 11:02:24;;;;;;;1.88;0.57;;;19.30;88.10;;;;;;4969232;28;20078;-69
2022/07/15 11:04:52;;;;;;;1.40;0.50;;;19.30;88.20;;;;;;4992262;28;20327;-67
2022/07/15 11:07:19;;;;;;;3.35;0.70;;;19.20;88.40;;;;;;4976599;28;20057;-69
2022/07/15 11:10:06;;;;;;;2.78;0.52;;;19.20;88.90;;;;;;4992270;28;20042;-67
2022/07/15 11:12:32;;;;;;;1.40;0.55;;;19.20;87.80;;;;;;4992863;28;20489;-67
2022/07/15 11:15:11;;;;;;;2.13;0.43;;;19.30;88.00;;;;;;4974075;28;20073;-67
2022/07/15 11:17:38;;;;;;;2.50;0.40;;;19.30;87.80;;;;;;4976769;28;20044;-67
2022/07/15 11:20:13;;;;;;;3.00;0.60;;;19.40;87.80;;;;;;4992163;28;20049;-59
2022/07/15 11:22:41;;;;;;;5.95;0.70;;;19.50;88.10;;;;;;4996359;28;20378;-60
2022/07/15 11:25:17;;;;;;;4.15;0.88;;;19.60;87.70;;;;;;4992147;28;20080;-59
2022/07/15 11:27:55;;;;;;;1.27;0.50;;;19.60;86.30;;;;;;4999273;28;20050;-59
2022/07/15 11:30:21;;;;;;;1.15;0.40;;;19.70;85.80;;;;;;4990473;28;20049;-59
2022/07/15 11:32:55;;;;;;;2.20;0.50;;;19.70;85.70;;;;;;4994657;28;20049;-59
2022/07/15 11:35:21;;;;;;;2.35;0.60;;;19.80;86.30;;;;;;4998375;28;20493;-58
2022/07/15 11:37:47;;;;;;;2.42;0.60;;;19.90;86.90;;;;;;4998103;28;20052;-58
2022/07/15 11:45:47;;;;;;;1.33;0.50;;;20.00;85.60;;;;;;4997245;28;20072;-59
2022/07/15 11:48:14;;;;;;;2.22;0.60;;;20.10;84.80;;;;;;5001435;28;20400;-60
2022/07/15 11:50:54;;;;;;;2.38;0.70;;;20.30;84.70;;;;;;4996255;28;20042;-59
2022/07/15 11:53:20;;;;;;;2.58;0.65;;;20.70;83.90;;;;;;5001873;28;20518;-59
2022/07/15 11:55:57;;;;;;;1.73;0.60;;;20.80;82.30;;;;;;4996568;28;20069;-59
2022/07/15 11:58:47;;;;;;;2.50;0.73;;;21.00;82.20;;;;;;4996419;28;20491;-58
2022/07/15 12:01:17;;;;;;;1.88;0.70;;;21.10;81.50;;;;;;4989579;28;20389;-59
2022/07/15 12:03:49;;;;;;;4.28;0.88;;;21.00;81.30;;;;;;4994087;28;20091;-57
2022/07/15 12:06:30;;;;;;;1.20;0.60;;;20.90;82.40;;;;;;4996181;28;21073;-57
2022/07/15 12:09:03;;;;;;;2.78;0.73;;;20.80;83.70;;;;;;5008216;28;20060;-60
2022/07/15 12:11:34;;;;;;;2.25;0.93;;;20.60;84.10;;;;;;4993876;28;20053;-59
2022/07/15 12:14:04;;;;;;;2.22;0.80;;;20.50;85.00;;;;;;5008697;28;20101;-58
2022/07/15 12:16:32;;;;;;;1.83;0.80;;;20.30;86.10;;;;;;4992163;28;20180;-63
2022/07/15 12:19:03;;;;;;;2.15;0.88;;;20.20;86.70;;;;;;4994130;28;20459;-62
2022/07/15 12:21:29;;;;;;;1.67;0.85;;;20.10;86.90;;;;;;4994817;28;20088;-61
2022/07/15 12:24:04;;;;;;;4.28;1.00;;;20.00;87.80;;;;;;5010842;28;20073;-60
2022/07/15 12:26:30;;;;;;;2.83;1.10;;;19.90;88.70;;;;;;4992653;28;20092;-61
2022/07/15 12:28:59;;;;;;;4.70;1.23;;;19.90;89.30;;;;;;4991171;28;20143;-62
2022/07/15 12:31:30;;;;;;;4.75;1.00;;;19.80;90.00;;;;;;4994969;28;20042;-61
2022/07/15 12:33:57;;;;;;;2.72;1.00;;;19.80;90.10;;;;;;5000523;28;20079;-61
2022/07/15 12:36:26;;;;;;;4.03;0.82;;;19.70;90.40;;;;;;4996528;28;20042;-62
2022/07/15 12:39:12;;;;;;;4.05;1.10;;;19.70;90.80;;;;;;4991828;28;20116;-61
2022/07/15 12:41:41;;;;;;;2.78;0.80;;;19.60;90.90;;;;;;4997917;28;20127;-61
2022/07/15 12:44:08;;;;;;;2.95;0.90;;;19.60;91.20;;;;;;4998399;28;20046;-62
2022/07/15 12:46:51;;;;;;;4.55;1.05;;;19.50;91.60;;;;;;4999714;28;20045;-62
2022/07/15 12:49:56;;;;;;;3.10;1.00;;;19.40;91.90;;;;;;4996318;28;20050;-62
2022/07/15 12:52:29;;;;;;;1.73;0.80;;;19.50;91.70;;;;;;4995404;28;20085;-63
2022/07/15 12:54:55;;;;;;;;;;;19.50;91.90;;;;;;4995774;28;20423;-61
2022/07/15 12:57:26;;;;;;;5.25;0.88;;;19.50;91.90;;;;;;4995838;28;20019;-61
2022/07/15 13:00:05;;;;;;;3.80;1.13;;;19.50;92.00;;;;;;4978955;28;20049;-62
2022/07/15 13:02:32;;;;;;;4.57;3.10;;;19.60;91.90;;;;;;4992379;28;20116;-62
2022/07/15 13:05:16;;;;;;;46.28;41.58;;;19.70;91.80;;;;;;4995948;28;20205;-62
2022/07/15 13:07:42;;;;;;;5.38;2.67;;;19.80;91.80;;;;;;4990875;28;20551;-63
2022/07/15 13:10:08;;;;;;;10.73;3.65;;;19.80;91.60;;;;;;4988122;28;20260;-62